EmailTwitter


Surface observations / Quebec / CYUL (71627)

Regions: Quebec | Canada | USA | Europe | France | UK | Elsewhere
Station
Display
Info & Location for CYUL (71627) | Help decoding METAR

Weather Conditions observed on 2020/02/21 at 05:00 UTC at MONTREAL INTL A, QB (CYUL)

Sky conditions: few clouds.

Temperature: -17.0 Celsius.

Dewpoint: -22.0 Celsius.

Relative Humidity: 65%

Windchill Factor: -23.

Winds: Southwest at 9 km/h or 5 knots.

Mean Sea level Pressure: 103.22 kilopascals.

Altimeter Setting (QNH): 103.18 kilopascals or 30.47 inches of mercury.

Horizontal visibility: 15.00 statute miles or 24.00 kilometers.

Coded METAR:

CYUL 210500Z 24005KT 15SM FEW140 FEW250 M17/M22 A3047 RMK AC1CI1 CI TR SLP322=